Time;durP1;ratioP1;P1;durP2;ratioP2;P2;SDS_P1;SDS_P2;PMS_P1;PMS_P2;Temp;Humidity;BMP_temperature;BMP_pressure;BME280_temperature;BME280_humidity;BME280_pressure;Samples;Min_cycle;Max_cycle;Signal;HPM_P1;HPM_P2
2023/09/02 00:02:07;;;;;;;1.85;0.70;;;;;;;16.77;91.26;97885.00;10417482;28;20133;-68
2023/09/02 00:07:28;;;;;;;3.00;0.60;;;;;;;16.81;91.20;97892.94;10416960;28;20065;-66
2023/09/02 00:12:49;;;;;;;1.92;0.65;;;;;;;16.80;90.58;97894.31;10416648;28;20116;-66
2023/09/02 00:18:10;;;;;;;3.83;0.50;;;;;;;16.74;90.91;97891.91;10415940;28;20049;-66
2023/09/02 00:23:31;;;;;;;2.35;0.50;;;;;;;16.71;91.13;97884.75;10415575;28;20456;-67
2023/09/02 00:28:52;;;;;;;2.13;0.50;;;;;;;16.73;91.43;97889.75;10416046;28;20136;-67
2023/09/02 00:34:13;;;;;;;1.42;0.75;;;;;;;16.84;91.07;97886.00;10415174;28;20041;-67
2023/09/02 00:39:34;;;;;;;1.30;0.50;;;;;;;16.93;91.24;97893.47;10414902;28;20080;-67
2023/09/02 00:44:55;;;;;;;2.28;0.60;;;;;;;17.01;91.00;97893.13;10414875;28;20531;-67
2023/09/02 00:50:16;;;;;;;1.35;0.50;;;;;;;17.05;90.86;97898.94;10414488;28;20539;-67
2023/09/02 00:55:36;;;;;;;1.65;0.60;;;;;;;17.10;91.07;97906.22;10414427;28;20171;-66
2023/09/02 01:00:58;;;;;;;2.38;0.43;;;;;;;17.12;90.81;97904.22;10414406;28;20069;-67
2023/09/02 01:06:19;;;;;;;1.05;0.50;;;;;;;17.15;90.79;97907.84;10400366;28;20047;-67
2023/09/02 01:11:39;;;;;;;1.17;0.68;;;;;;;17.16;90.42;97900.81;10414241;28;20152;-67
2023/09/02 01:17:00;;;;;;;1.20;0.70;;;;;;;17.17;90.80;97897.38;10414027;28;20049;-66
2023/09/02 01:22:40;;;;;;;2.30;0.70;;;;;;;17.17;90.58;97907.91;10415458;28;20068;-67
2023/09/02 01:28:05;;;;;;;1.40;0.50;;;;;;;17.10;90.75;97903.41;10414920;28;20125;-66
2023/09/02 01:33:25;;;;;;;2.13;0.57;;;;;;;17.01;90.39;97905.13;10420677;28;20096;-66
2023/09/02 01:38:46;;;;;;;2.72;0.50;;;;;;;16.96;90.75;97911.94;10407972;28;20080;-66
2023/09/02 01:44:07;;;;;;;4.43;0.63;;;;;;;16.95;91.19;97921.03;10422457;28;20073;-67
2023/09/02 01:49:28;;;;;;;1.23;0.45;;;;;;;16.94;90.68;97928.75;10421401;28;20555;-66
2023/09/02 01:54:49;;;;;;;2.00;0.52;;;;;;;16.86;90.64;97928.38;10421668;28;20057;-66
2023/09/02 02:00:11;;;;;;;1.20;0.57;;;;;;;16.70;90.78;97931.19;10420998;28;20120;-67
2023/09/02 02:05:35;;;;;;;1.92;0.50;;;;;;;16.57;91.19;97921.41;10434581;28;20077;-66
2023/09/02 02:10:57;;;;;;;2.70;0.60;;;;;;;16.49;91.72;97940.03;10407084;28;20128;-66
2023/09/02 02:16:22;;;;;;;1.85;0.60;;;;;;;16.39;91.83;97933.91;10434386;28;20065;-66
2023/09/02 02:21:42;;;;;;;3.58;0.77;;;;;;;16.30;92.64;97932.78;10433600;28;20065;-66
2023/09/02 02:27:03;;;;;;;1.20;0.60;;;;;;;16.23;92.22;97940.22;10434355;28;20065;-67
2023/09/02 02:32:24;;;;;;;1.50;0.70;;;;;;;16.14;92.71;97938.38;10419833;28;20505;-67
2023/09/02 02:37:45;;;;;;;2.97;0.57;;;;;;;16.10;92.69;97937.44;10433595;28;20470;-68
2023/09/02 02:43:06;;;;;;;1.80;0.50;;;;;;;16.04;92.88;97932.25;10420273;28;20113;-68
2023/09/02 02:48:28;;;;;;;2.22;1.13;;;;;;;15.99;92.81;97939.75;10419980;28;20124;-68
2023/09/02 02:53:49;;;;;;;1.53;0.70;;;;;;;15.93;93.04;97930.31;10405284;28;20137;-68
2023/09/02 02:59:10;;;;;;;1.92;0.85;;;;;;;15.93;92.80;97933.13;10419744;28;20045;-67
2023/09/02 03:04:32;;;;;;;2.05;0.55;;;;;;;15.89;92.76;97944.16;10418658;28;20081;-67
2023/09/02 03:09:53;;;;;;;2.47;0.70;;;;;;;15.98;93.51;97952.38;10418183;28;20065;-66
2023/09/02 03:15:13;;;;;;;2.42;0.60;;;;;;;16.15;93.23;97956.00;10432242;28;20061;-68
2023/09/02 03:20:34;;;;;;;3.25;0.50;;;;;;;16.28;92.87;97947.50;10418207;28;20045;-66
2023/09/02 03:25:55;;;;;;;1.88;0.68;;;;;;;16.39;92.77;97953.63;10404049;28;20073;-68
2023/09/02 03:31:17;;;;;;;2.05;0.52;;;;;;;16.51;92.61;97957.78;10418412;28;20095;-67
2023/09/02 03:36:38;;;;;;;3.25;0.65;;;;;;;16.60;92.19;97953.97;10417647;28;20535;-66
2023/09/02 03:41:59;;;;;;;3.03;0.50;;;;;;;16.63;92.22;97960.44;10418612;28;20072;-67
2023/09/02 03:47:20;;;;;;;2.70;0.52;;;;;;;16.56;92.17;97965.03;10418076;28;20071;-65
2023/09/02 03:52:41;;;;;;;2.83;0.60;;;;;;;16.50;92.29;97958.38;10416663;28;20048;-66
2023/09/02 03:58:02;;;;;;;2.08;0.60;;;;;;;16.39;92.35;97962.06;10416675;28;20518;-66
2023/09/02 04:03:24;;;;;;;1.13;0.43;;;;;;;16.34;92.45;97960.44;10416378;28;20129;-66
2023/09/02 04:08:44;;;;;;;3.03;0.85;;;;;;;16.31;92.72;97970.88;10402881;28;20061;-68
2023/09/02 04:14:05;;;;;;;2.30;0.70;;;;;;;16.24;92.40;97971.94;10416803;28;20052;-66
2023/09/02 04:19:26;;;;;;;1.40;0.63;;;;;;;16.14;92.72;97989.06;10430440;28;20041;-67
2023/09/02 04:24:47;;;;;;;1.45;0.60;;;;;;;16.03;92.57;97992.75;10401670;28;20136;-67
2023/09/02 04:30:09;;;;;;;2.20;0.38;;;;;;;16.03;92.99;97989.91;10415280;28;20053;-67
2023/09/02 04:35:35;;;;;;;1.70;0.65;;;;;;;16.13;92.87;98006.59;10415728;28;20550;-66
2023/09/02 04:40:56;;;;;;;4.95;0.60;;;;;;;16.27;92.52;98013.66;10414795;28;20065;-66
2023/09/02 04:46:16;;;;;;;1.90;0.55;;;;;;;16.49;92.29;98004.81;10414784;28;20120;-67
2023/09/02 04:51:38;;;;;;;2.35;0.70;;;;;;;16.74;91.88;98023.66;10415363;28;20044;-67
2023/09/02 04:56:59;;;;;;;2.08;0.63;;;;;;;16.95;91.46;98019.72;10414568;28;20072;-67
2023/09/02 05:02:20;;;;;;;3.33;0.60;;;;;;;17.12;91.11;98027.56;10414507;28;20072;-67
2023/09/02 05:07:41;;;;;;;1.45;0.68;;;;;;;17.24;90.76;98028.13;10414236;28;20404;-66
2023/09/02 05:13:03;;;;;;;2.45;0.50;;;;;;;17.32;90.39;98030.59;10401258;28;20049;-66
2023/09/02 05:18:25;;;;;;;1.00;0.50;;;;;;;17.36;90.39;98034.31;10414174;28;20223;-67
2023/09/02 05:23:46;;;;;;;2.33;0.93;;;;;;;17.49;89.93;98035.63;10415260;28;20073;-66
2023/09/02 05:29:06;;;;;;;2.83;1.75;;;;;;;17.67;89.78;98047.72;10414609;28;20120;-66
2023/09/02 05:34:27;;;;;;;3.05;1.65;;;;;;;17.85;89.27;98047.06;10414891;28;20065;-66
2023/09/02 05:39:47;;;;;;;4.05;1.80;;;;;;;17.97;88.54;98045.53;10427490;28;20112;-66
2023/09/02 05:45:09;;;;;;;1.63;1.13;;;;;;;18.45;88.67;98054.63;10427713;28;20124;-66
2023/09/02 05:50:29;;;;;;;2.45;0.90;;;;;;;22.56;92.62;98050.66;10413273;28;20072;-66
2023/09/02 05:55:56;;;;;;;3.88;0.70;;;;;;;31.96;68.95;98058.41;10414495;28;20388;-67
2023/09/02 06:01:17;;;;;;;2.47;0.75;;;;;;;36.69;55.74;98070.44;10414367;28;20521;-70
2023/09/02 06:06:38;;;;;;;0.90;0.50;;;;;;;33.43;46.48;98077.13;10413925;28;20080;-70
2023/09/02 06:11:58;;;;;;;1.70;0.40;;;;;;;31.26;49.54;98082.19;10414165;28;20554;-69
2023/09/02 06:17:19;;;;;;;4.60;0.53;;;;;;;27.89;50.56;98075.81;10416935;28;20069;-67
2023/09/02 06:22:40;;;;;;;1.77;0.40;;;;;;;25.17;52.77;98082.38;10421090;28;20076;-66
2023/09/02 06:28:00;;;;;;;2.03;0.50;;;;;;;23.48;55.00;98072.75;10420780;28;20092;-66
2023/09/02 06:33:22;;;;;;;1.10;0.40;;;;;;;22.61;56.50;98080.66;10421231;28;20072;-66
2023/09/02 06:38:43;;;;;;;1.40;0.40;;;;;;;22.18;57.73;98076.69;10419768;28;20124;-66
2023/09/02 06:44:04;;;;;;;1.08;0.40;;;;;;;22.38;57.84;98084.31;10419334;28;20095;-67
2023/09/02 06:49:24;;;;;;;2.40;0.30;;;;;;;22.10;57.81;98084.28;10419151;28;20551;-66
2023/09/02 06:54:48;;;;;;;0.80;0.40;;;;;;;21.57;58.81;98094.09;10419893;28;20133;-66
2023/09/02 07:00:13;;;;;;;1.85;0.40;;;;;;;23.32;60.89;98101.59;10419078;28;20128;-66
2023/09/02 07:05:34;;;;;;;1.73;0.70;;;;;;;28.22;55.07;98111.06;10420214;28;20053;-66
2023/09/02 07:10:54;;;;;;;1.13;0.30;;;;;;;30.24;47.30;98125.38;10419106;28;20076;-66
2023/09/02 07:16:15;;;;;;;1.55;0.40;;;;;;;27.85;48.92;98120.94;10419164;28;20049;-66
2023/09/02 07:21:36;;;;;;;3.35;0.43;;;;;;;26.72;49.12;98121.50;10418770;28;20069;-66
2023/09/02 07:26:57;;;;;;;1.95;0.40;;;;;;;25.26;50.66;98135.34;10418056;28;20069;-67
2023/09/02 07:32:18;;;;;;;1.70;0.43;;;;;;;24.50;51.63;98126.88;10418177;28;20121;-66
2023/09/02 07:37:38;;;;;;;2.22;0.30;;;;;;;24.31;52.23;98133.63;10418304;28;20045;-66
2023/09/02 07:43:00;;;;;;;3.22;0.30;;;;;;;24.33;52.78;98139.44;10431071;28;20041;-66
2023/09/02 07:48:21;;;;;;;2.85;0.70;;;;;;;24.17;53.15;98139.78;10417862;28;20069;-66
2023/09/02 07:53:41;;;;;;;2.58;0.70;;;;;;;23.08;54.22;98136.66;10416806;28;20506;-66
2023/09/02 07:59:05;;;;;;;3.25;0.90;;;;;;;22.47;56.81;98143.59;10417338;28;20072;-66
2023/09/02 08:04:26;;;;;;;3.30;1.08;;;;;;;22.12;57.51;98150.44;10417323;28;20125;-66
2023/09/02 08:09:50;;;;;;;2.28;1.05;;;;;;;22.13;59.61;98159.69;10415921;28;20041;-66
2023/09/02 08:15:10;;;;;;;3.00;0.80;;;;;;;24.70;57.96;98163.63;10416813;28;20076;-66
2023/09/02 08:20:31;;;;;;;4.57;1.15;;;;;;;25.63;54.50;98170.22;10415839;28;20073;-66
2023/09/02 08:25:53;;;;;;;2.40;0.82;;;;;;;28.25;49.14;98169.19;10429162;28;20571;-66
2023/09/02 08:31:18;;;;;;;2.30;1.00;;;;;;;25.68;49.66;98181.03;10416527;28;20472;-66
2023/09/02 08:36:39;;;;;;;2.65;1.73;;;;;;;24.17;52.66;98180.44;10416029;28;20464;-66
2023/09/02 08:41:59;;;;;;;2.95;1.20;;;;;;;23.30;54.01;98189.84;10414852;28;20078;-66
2023/09/02 08:47:20;;;;;;;2.55;0.90;;;;;;;22.59;55.74;98191.56;10415430;28;20080;-66
2023/09/02 08:52:41;;;;;;;3.40;1.10;;;;;;;22.58;57.28;98190.09;10415807;28;20072;-66
2023/09/02 08:58:02;;;;;;;3.13;1.20;;;;;;;23.08;58.29;98185.06;10428354;28;20073;-66
2023/09/02 09:03:23;;;;;;;3.88;1.00;;;;;;;25.35;57.30;98191.22;10428176;28;20069;-66
2023/09/02 09:08:44;;;;;;;2.75;0.60;;;;;;;27.98;52.28;98199.88;10414222;28;20088;-67
2023/09/02 09:14:05;;;;;;;1.65;0.90;;;;;;;27.58;47.27;98215.38;10414702;28;20078;-66
2023/09/02 09:19:26;;;;;;;1.90;1.00;;;;;;;26.42;48.81;98224.94;10400403;28;20496;-66
2023/09/02 09:24:47;;;;;;;1.30;0.70;;;;;;;25.38;49.80;98240.53;10413963;28;20503;-66
2023/09/02 09:30:26;;;;;;;1.85;0.70;;;;;;;24.76;51.17;98238.69;10413908;28;20091;-66
2023/09/02 09:35:47;;;;;;;4.13;1.23;;;;;;;24.52;52.30;98233.25;10413670;28;20468;-66
2023/09/02 09:41:08;;;;;;;1.30;0.80;;;;;;;25.63;53.46;98247.38;10414489;28;20053;-66
2023/09/02 09:46:29;;;;;;;1.63;0.85;;;;;;;26.76;49.99;98251.13;10427484;28;20110;-66
2023/09/02 09:52:08;;;;;;;2.03;0.95;;;;;;;28.64;49.00;98244.72;10416979;28;20557;-66
2023/09/02 09:57:38;;;;;;;2.58;0.68;;;;;;;30.13;41.62;98250.66;10435018;28;20550;-69
2023/09/02 10:02:59;;;;;;;2.90;0.70;;;;;;;28.39;43.33;98251.81;10422374;28;20088;-67
2023/09/02 10:08:20;;;;;;;1.20;0.68;;;;;;;26.95;44.94;98263.50;10407425;28;20045;-66
2023/09/02 10:13:41;;;;;;;1.20;0.93;;;;;;;26.21;46.96;98264.72;10421719;28;20045;-66
2023/09/02 10:19:02;;;;;;;1.10;0.98;;;;;;;25.72;47.21;98265.41;10420308;28;20092;-66
2023/09/02 10:24:23;;;;;;;1.20;0.90;;;;;;;25.85;48.61;98276.34;10421061;28;20128;-66
2023/09/02 10:29:44;;;;;;;3.33;1.05;;;;;;;26.69;47.76;98288.97;10420470;28;20049;-66
2023/09/02 10:35:13;;;;;;;1.67;0.98;;;;;;;26.48;46.89;98283.00;10419758;28;20045;-66
2023/09/02 10:40:38;;;;;;;2.40;1.40;;;;;;;26.84;46.24;98282.00;10419728;28;20136;-67
2023/09/02 10:45:59;;;;;;;0.80;0.80;;;;;;;29.07;46.41;98273.63;10433151;28;20506;-69
2023/09/02 10:51:20;;;;;;;1.00;0.60;;;;;;;34.89;38.77;98270.50;10433016;28;20554;-70
2023/09/02 10:56:41;;;;;;;1.63;0.60;;;;;;;37.41;28.56;98274.75;10433047;28;20483;-70
2023/09/02 11:02:02;;;;;;;0.70;0.50;;;;;;;34.78;29.50;98278.66;10420079;28;20057;-69
2023/09/02 11:07:24;;;;;;;1.00;0.60;;;;;;;36.83;27.67;98292.53;10419670;28;20080;-70
2023/09/02 11:13:00;;;;;;;2.03;0.60;;;;;;;33.03;29.97;98287.41;10419136;28;20423;-70
2023/09/02 11:18:32;;;;;;;0.80;0.60;;;;;;;33.37;33.90;98291.28;10419561;28;20045;-70
2023/09/02 11:23:53;;;;;;;2.17;0.50;;;;;;;34.86;29.86;98298.78;10418957;28;20084;-69
2023/09/02 11:29:40;;;;;;;1.23;0.52;;;;;;;33.53;29.20;98296.84;10417648;28;20440;-69
2023/09/02 11:35:02;;;;;;;1.55;0.80;;;;;;;31.09;32.52;98305.75;10404168;28;20042;-69
2023/09/02 11:40:24;;;;;;;1.83;0.70;;;;;;;30.33;34.31;98293.78;10431360;28;20549;-69
2023/09/02 11:45:45;;;;;;;1.73;0.70;;;;;;;31.91;32.90;98300.16;10403073;28;20080;-69
2023/09/02 11:51:10;;;;;;;0.95;0.60;;;;;;;32.79;31.83;98299.97;10417228;28;20071;-69
2023/09/02 11:56:31;;;;;;;2.08;0.85;;;;;;;31.91;31.95;98300.16;10416380;28;20191;-70
2023/09/02 12:02:07;;;;;;;1.90;1.13;;;;;;;30.23;34.14;98293.81;10417545;28;20554;-69
2023/09/02 12:07:28;;;;;;;1.10;0.80;;;;;;;29.66;36.10;98284.50;10417240;28;20073;-69
2023/09/02 12:12:49;;;;;;;0.93;0.80;;;;;;;29.55;35.70;98275.84;10430080;28;20124;-69
2023/09/02 12:18:10;;;;;;;1.77;0.97;;;;;;;29.10;36.67;98280.78;10415839;28;20072;-69
2023/09/02 12:23:31;;;;;;;1.20;1.00;;;;;;;28.67;37.32;98274.91;10429853;28;20861;-69
2023/09/02 12:28:51;;;;;;;1.77;1.40;;;;;;;28.68;37.84;98284.94;10429261;28;20518;-69
2023/09/02 12:34:16;;;;;;;2.08;1.23;;;;;;;28.07;38.15;98281.72;10415146;28;20037;-66
2023/09/02 12:39:37;;;;;;;1.65;1.45;;;;;;;27.37;39.71;98288.31;10415012;28;20128;-66
2023/09/02 12:44:58;;;;;;;1.60;1.40;;;;;;;26.87;41.37;98292.06;10414570;28;20060;-66
2023/09/02 12:50:23;;;;;;;2.03;1.60;;;;;;;26.36;43.12;98297.13;10415512;28;20129;-66
2023/09/02 12:55:44;;;;;;;2.67;1.70;;;;;;;26.34;43.50;98285.63;10415415;28;20160;-67
2023/09/02 13:01:06;;;;;;;2.80;1.50;;;;;;;26.35;43.11;98292.81;10414668;28;20049;-66
2023/09/02 13:06:29;;;;;;;1.92;1.65;;;;;;;26.29;43.89;98289.13;10414997;28;20116;-66
2023/09/02 13:11:50;;;;;;;1.98;1.63;;;;;;;26.45;43.27;98287.25;10414831;28;20061;-67
2023/09/02 13:17:11;;;;;;;3.03;1.38;;;;;;;26.50;43.58;98274.44;10415523;28;20049;-66
2023/09/02 13:22:37;;;;;;;4.18;1.92;;;;;;;26.54;43.21;98273.78;10414137;28;20471;-66
2023/09/02 13:27:59;;;;;;;4.53;1.63;;;;;;;26.82;43.23;98284.81;10431902;28;20526;-66
2023/09/02 13:33:20;;;;;;;2.20;1.65;;;;;;;27.42;42.66;98274.75;10422050;28;20061;-66
2023/09/02 13:38:41;;;;;;;1.83;1.37;;;;;;;27.99;41.25;98267.34;10423032;28;20072;-66
2023/09/02 13:44:02;;;;;;;2.63;2.13;;;;;;;27.33;41.32;98271.09;10422580;28;20037;-66
2023/09/02 13:49:23;;;;;;;2.83;1.88;;;;;;;26.87;41.74;98269.16;10422234;28;20495;-66
2023/09/02 13:54:45;;;;;;;3.95;1.80;;;;;;;26.46;42.90;98268.66;10421448;28;20392;-66
2023/09/02 14:00:09;;;;;;;2.00;1.70;;;;;;;26.04;43.48;98265.91;10422447;28;20049;-67
2023/09/02 14:05:31;;;;;;;1.90;1.42;;;;;;;25.44;44.30;98265.63;10419270;28;20210;-66
2023/09/02 14:10:52;;;;;;;2.08;1.88;;;;;;;25.59;44.94;98267.34;10418337;28;20069;-66
2023/09/02 14:16:13;;;;;;;1.95;1.58;;;;;;;25.95;44.37;98276.50;10418140;28;20041;-66
2023/09/02 14:21:34;;;;;;;3.58;1.55;;;;;;;26.41;43.63;98283.59;10418927;28;20038;-66
2023/09/02 14:27:11;;;;;;;2.10;1.33;;;;;;;26.64;43.34;98276.75;10417870;28;20116;-67
2023/09/02 14:32:33;;;;;;;2.22;1.50;;;;;;;26.30;42.97;98271.28;10417788;28;20120;-66
2023/09/02 14:37:53;;;;;;;2.65;1.48;;;;;;;25.65;43.83;98282.44;10417997;28;20055;-66
2023/09/02 14:43:14;;;;;;;1.73;1.40;;;;;;;25.48;45.11;98288.56;10431145;28;20064;-66
2023/09/02 14:48:35;;;;;;;2.25;1.45;;;;;;;25.71;44.96;98275.41;10416847;28;20046;-67
2023/09/02 14:53:56;;;;;;;1.85;1.50;;;;;;;25.81;44.55;98279.16;10416796;28;20045;-66
2023/09/02 14:59:19;;;;;;;1.75;1.50;;;;;;;25.50;45.04;98265.75;10403043;28;20042;-67
2023/09/02 15:04:40;;;;;;;1.40;1.00;;;;;;;25.17;45.82;98268.03;10384507;28;1350370;-66
2023/09/02 15:10:05;;;;;;;2.00;1.50;;;;;;;24.86;45.76;98271.72;10432148;28;20045;-66
2023/09/02 15:15:29;;;;;;;2.00;1.48;;;;;;;24.64;46.75;98278.41;10419311;28;20098;-66
2023/09/02 15:20:50;;;;;;;3.58;1.48;;;;;;;24.76;47.22;98289.34;10418974;28;20053;-66
2023/09/02 15:26:11;;;;;;;2.00;1.40;;;;;;;24.64;47.01;98284.13;10417944;28;20146;-66
2023/09/02 15:31:32;;;;;;;2.20;1.45;;;;;;;24.53;47.21;98282.47;10418876;28;20041;-66
2023/09/02 15:36:56;;;;;;;2.10;1.27;;;;;;;24.42;47.68;98281.53;10417512;28;20065;-66
2023/09/02 15:42:17;;;;;;;2.38;1.50;;;;;;;24.48;47.23;98289.50;10417728;28;20050;-65
2023/09/02 15:47:39;;;;;;;2.45;1.70;;;;;;;24.32;47.70;98300.53;10417772;28;20491;-65
2023/09/02 15:53:00;;;;;;;3.22;1.55;;;;;;;24.10;48.36;98304.31;10416353;28;20041;-66
2023/09/02 15:58:21;;;;;;;3.08;1.85;;;;;;;23.94;49.13;98293.28;10430257;28;20068;-66
2023/09/02 16:03:42;;;;;;;2.75;1.50;;;;;;;23.64;48.99;98296.13;10417035;28;20513;-66
2023/09/02 16:09:03;;;;;;;1.58;1.30;;;;;;;23.41;49.77;98308.31;10415858;28;20046;-67
2023/09/02 16:14:24;;;;;;;2.80;2.10;;;;;;;23.20;50.69;98297.81;10429728;28;20048;-66
2023/09/02 16:19:45;;;;;;;3.50;2.00;;;;;;;22.95;50.93;98302.81;10429763;28;20159;-66
2023/09/02 16:25:06;;;;;;;2.10;1.73;;;;;;;22.73;51.37;98302.19;10416425;28;20121;-66
2023/09/02 16:30:27;;;;;;;2.28;2.05;;;;;;;22.61;52.43;98293.31;10415452;28;20045;-66
2023/09/02 16:35:48;;;;;;;3.25;1.75;;;;;;;22.45;52.17;98285.03;10428971;28;20034;-66
2023/09/02 16:41:09;;;;;;;2.45;1.60;;;;;;;22.39;53.01;98301.91;10415592;28;20111;-66
2023/09/02 16:46:30;;;;;;;2.63;1.58;;;;;;;22.29;53.59;98296.63;10428779;28;20076;-66
2023/09/02 16:51:51;;;;;;;2.42;1.83;;;;;;;22.16;53.86;98297.66;10415397;28;20069;-66
2023/09/02 16:57:12;;;;;;;2.72;2.28;;;;;;;22.07;54.31;98298.81;10415682;28;20094;-66
2023/09/02 17:02:33;;;;;;;2.47;1.70;;;;;;;22.09;54.28;98302.44;10428177;28;20084;-66
2023/09/02 17:07:54;;;;;;;2.35;1.67;;;;;;;21.99;54.58;98305.66;10414230;28;20117;-66
2023/09/02 17:13:15;;;;;;;2.55;2.03;;;;;;;21.94;54.92;98314.72;10427960;28;20117;-66
2023/09/02 17:18:36;;;;;;;2.47;1.70;;;;;;;21.86;55.20;98303.81;10414240;28;20468;-66
2023/09/02 17:23:56;;;;;;;1.70;1.40;;;;;;;21.78;55.23;98297.16;10414975;28;20073;-67
2023/09/02 17:29:18;;;;;;;4.15;3.00;;;;;;;21.61;55.70;98293.03;10415372;28;20045;-67
2023/09/02 17:34:40;;;;;;;5.82;3.42;;;;;;;21.39;56.35;98298.72;10415572;28;20069;-65
2023/09/02 17:40:01;;;;;;;3.95;3.05;;;;;;;21.17;57.04;98301.50;10414822;28;20132;-67
2023/09/02 17:45:21;;;;;;;5.25;3.45;;;;;;;20.97;57.49;98300.81;10415141;28;20438;-66
2023/09/02 17:50:42;;;;;;;3.97;2.72;;;;;;;20.81;57.67;98304.50;10413520;28;20579;-66
2023/09/02 17:56:03;;;;;;;8.07;4.15;;;;;;;20.63;58.28;98292.50;10413518;28;20113;-66
2023/09/02 18:01:24;;;;;;;6.57;3.55;;;;;;;20.48;58.51;98310.38;10427098;28;20077;-66
2023/09/02 18:06:45;;;;;;;4.13;2.33;;;;;;;20.33;58.87;98316.84;10414087;28;20127;-66
2023/09/02 18:12:05;;;;;;;2.63;1.80;;;;;;;20.18;59.56;98319.16;10415241;28;20552;-66
2023/09/02 18:17:26;;;;;;;6.10;2.35;;;;;;;20.08;60.10;98318.75;10435069;28;20488;-66
2023/09/02 18:22:47;;;;;;;3.72;2.08;;;;;;;20.00;60.62;98319.16;10421471;28;20046;-66
2023/09/02 18:28:08;;;;;;;3.33;2.10;;;;;;;19.92;61.33;98326.59;10420336;28;20100;-66
2023/09/02 18:33:29;;;;;;;3.20;2.28;;;;;;;19.90;61.63;98329.34;10420916;28;20069;-66
2023/09/02 18:38:50;;;;;;;4.03;2.78;;;;;;;19.84;62.09;98334.78;10433607;28;20247;-66
2023/09/02 18:44:10;;;;;;;4.45;2.55;;;;;;;19.85;62.02;98341.88;10420329;28;20045;-66
2023/09/02 18:49:31;;;;;;;4.43;3.53;;;;;;;19.81;62.62;98350.97;10420278;28;20069;-66
2023/09/02 18:54:52;;;;;;;4.10;2.80;;;;;;;19.78;62.99;98349.41;10420255;28;20077;-66
2023/09/02 19:00:13;;;;;;;4.22;2.70;;;;;;;19.73;63.41;98359.84;10419790;28;20046;-66
2023/09/02 19:05:34;;;;;;;5.40;3.15;;;;;;;19.72;63.54;98360.50;10418951;28;20088;-66
2023/09/02 19:10:55;;;;;;;4.18;3.00;;;;;;;19.77;63.86;98378.38;10419154;28;20491;-66
2023/09/02 19:16:16;;;;;;;3.92;2.30;;;;;;;19.78;64.17;98379.81;10418763;28;20073;-66
2023/09/02 19:21:37;;;;;;;5.07;3.00;;;;;;;19.68;64.69;98403.53;10419181;28;20499;-66
2023/09/02 19:26:58;;;;;;;5.30;3.45;;;;;;;19.58;65.29;98405.19;10417192;28;20121;-66
2023/09/02 19:32:19;;;;;;;9.60;5.57;;;;;;;19.51;64.66;98403.47;10417816;28;20116;-66
2023/09/02 19:37:44;;;;;;;8.35;5.70;;;;;;;19.40;65.18;98413.63;10418408;28;20069;-66
2023/09/02 19:43:04;;;;;;;6.05;4.10;;;;;;;19.36;65.34;98414.16;10403504;28;20123;-66
2023/09/02 19:48:25;;;;;;;5.32;3.55;;;;;;;19.35;65.84;98421.19;10418416;28;20095;-66
2023/09/02 19:53:46;;;;;;;6.50;4.05;;;;;;;19.31;66.20;98434.47;10417764;28;20042;-65
2023/09/02 19:59:10;;;;;;;3.95;3.47;;;;;;;19.24;67.08;98432.72;10416799;28;20096;-66
2023/09/02 20:04:31;;;;;;;3.80;3.00;;;;;;;19.22;67.08;98439.03;10417493;28;20124;-66
2023/09/02 20:09:52;;;;;;;5.03;3.58;;;;;;;19.13;66.96;98437.94;10416298;28;20065;-66
2023/09/02 20:15:12;;;;;;;7.35;3.72;;;;;;;19.09;67.66;98440.56;10416285;28;20164;-66
2023/09/02 20:20:37;;;;;;;5.10;3.60;;;;;;;19.03;68.48;98443.13;10415813;28;20041;-66
2023/09/02 20:25:58;;;;;;;4.90;3.75;;;;;;;19.04;68.31;98447.41;10416690;28;20057;-66
2023/09/02 20:31:19;;;;;;;4.53;3.15;;;;;;;19.01;68.55;98445.88;10416770;28;20590;-66
2023/09/02 20:36:40;;;;;;;4.25;3.80;;;;;;;19.02;68.80;98446.59;10415510;28;20463;-65
2023/09/02 20:42:01;;;;;;;7.28;3.47;;;;;;;18.94;69.07;98444.13;10428955;28;20061;-66
2023/09/02 20:47:22;;;;;;;4.05;2.65;;;;;;;18.91;68.95;98447.50;10414953;28;20065;-66
2023/09/02 20:52:42;;;;;;;3.50;2.85;;;;;;;18.81;69.50;98447.75;10415737;28;20038;-66
2023/09/02 20:58:03;;;;;;;3.95;2.85;;;;;;;18.78;69.99;98451.88;10428628;28;20061;-66
2023/09/02 21:03:28;;;;;;;2.75;2.55;;;;;;;18.73;70.37;98467.19;10428082;28;20133;-66
2023/09/02 21:08:49;;;;;;;3.58;2.72;;;;;;;18.73;70.09;98470.75;10428728;28;20073;-65
2023/09/02 21:14:09;;;;;;;6.22;2.90;;;;;;;18.71;69.99;98467.81;10415196;28;20041;-66
2023/09/02 21:19:34;;;;;;;4.43;3.10;;;;;;;18.72;70.20;98463.63;10428013;28;20457;-66
2023/09/02 21:24:54;;;;;;;3.72;2.92;;;;;;;18.68;70.20;98459.88;10415159;28;20069;-66
2023/09/02 21:30:15;;;;;;;5.07;3.03;;;;;;;18.60;70.13;98460.19;10414998;28;20121;-66
2023/09/02 21:35:37;;;;;;;4.57;2.78;;;;;;;18.55;70.55;98462.09;10414669;28;20128;-66
2023/09/02 21:41:04;;;;;;;3.67;3.00;;;;;;;18.50;70.81;98460.44;10413878;28;20121;-66
2023/09/02 21:46:25;;;;;;;3.28;2.72;;;;;;;18.44;70.99;98463.00;10414028;28;20065;-66
2023/09/02 21:51:46;;;;;;;3.30;2.80;;;;;;;18.49;71.41;98461.06;10435560;28;20081;-66
2023/09/02 21:57:07;;;;;;;4.20;2.50;;;;;;;18.49;71.08;98458.97;10422657;28;20095;-66
2023/09/02 22:02:29;;;;;;;4.63;3.00;;;;;;;18.43;71.11;98464.34;10422569;28;20507;-66
2023/09/02 22:07:50;;;;;;;4.10;2.90;;;;;;;18.40;71.34;98459.22;10421031;28;20041;-66
2023/09/02 22:13:10;;;;;;;5.55;3.00;;;;;;;18.36;71.84;98454.13;10421676;28;20045;-66
2023/09/02 22:18:31;;;;;;;3.85;3.00;;;;;;;18.31;71.65;98452.44;10421487;28;20103;-65
2023/09/02 22:23:52;;;;;;;4.70;2.80;;;;;;;18.27;71.94;98458.66;10421368;28;20125;-66
2023/09/02 22:29:13;;;;;;;3.83;2.70;;;;;;;18.32;72.16;98465.22;10421261;28;20192;-66
2023/09/02 22:34:33;;;;;;;3.50;2.70;;;;;;;18.33;71.85;98461.00;10421320;28;20133;-66
2023/09/02 22:39:54;;;;;;;3.85;2.97;;;;;;;18.22;72.30;98459.06;10420901;28;20120;-65
2023/09/02 22:45:15;;;;;;;4.15;2.40;;;;;;;18.14;72.37;98458.66;10433791;28;20065;-66
2023/09/02 22:50:36;;;;;;;3.85;2.70;;;;;;;18.05;72.76;98465.28;10420415;28;20464;-66
2023/09/02 22:55:57;;;;;;;4.00;2.92;;;;;;;18.03;73.17;98460.25;10405495;28;20120;-66
2023/09/02 23:01:18;;;;;;;4.15;2.80;;;;;;;18.05;73.02;98459.63;10456139;22;20091;-66
2023/09/02 23:06:39;;;;;;;3.53;2.65;;;;;;;17.98;72.93;98456.50;10502479;28;20470;-66
2023/09/02 23:12:01;;;;;;;4.25;3.00;;;;;;;17.88;73.18;98461.66;10502348;28;20064;-66
2023/09/02 23:17:22;;;;;;;5.70;3.25;;;;;;;17.85;73.66;98467.81;10487133;28;20120;-66
2023/09/02 23:22:47;;;;;;;4.38;3.28;;;;;;;17.85;73.68;98468.53;10501979;28;20044;-65
2023/09/02 23:28:08;;;;;;;5.05;3.30;;;;;;;17.81;73.76;98459.88;10487118;28;20068;-66
2023/09/02 23:33:28;;;;;;;6.50;3.42;;;;;;;17.78;74.04;98452.69;10501331;28;20456;-66
2023/09/02 23:38:49;;;;;;;5.28;3.55;;;;;;;17.76;74.36;98463.88;10501186;28;20562;-66
2023/09/02 23:44:10;;;;;;;4.40;3.70;;;;;;;17.76;74.08;98451.81;10485964;28;20111;-66
2023/09/02 23:49:31;;;;;;;4.72;3.90;;;;;;;17.78;74.42;98455.50;10500849;28;20112;-66
2023/09/02 23:54:52;;;;;;;5.10;4.28;;;;;;;17.83;74.40;98450.78;10485534;28;20064;-66
